Time,TemperatureF,DewpointF,PressureIn,WindDirection,WindDirectionDegrees,WindSpeedMPH,WindSpeedGustMPH,Humidity,HourlyPrecipIn,Conditions,Clouds,dailyrainin,SoftwareType,DateUTC
2013-01-04 00:00:00,28.8,21.9,30.00,West,270,5.4,5.4,75,0.00,,,0.00,WUHU216HW,2013-01-04 05:00:00,
2013-01-04 00:02:00,28.8,21.9,30.00,West,270,4.7,6.3,75,0.00,,,0.00,WUHU216HW,2013-01-04 05:02:00,
2013-01-04 00:07:00,28.8,22.1,30.00,West,270,4.7,6.3,76,0.00,,,0.00,WUHU216HW,2013-01-04 05:07:00,
2013-01-04 00:12:00,28.8,21.9,30.00,WSW,248,4.7,5.1,75,0.00,,,0.00,WUHU216HW,2013-01-04 05:12:00,
2013-01-04 00:17:00,28.6,21.7,30.00,WSW,248,4.0,6.3,75,0.00,,,0.00,WUHU216HW,2013-01-04 05:17:00,
2013-01-04 00:22:00,28.6,21.7,30.00,WSW,248,5.4,6.3,75,0.00,,,0.00,WUHU216HW,2013-01-04 05:22:00,
2013-01-04 00:27:00,28.6,21.7,29.99,WSW,248,4.9,5.4,75,0.00,,,0.00,WUHU216HW,2013-01-04 05:27:00,
2013-01-04 00:32:00,28.6,21.7,29.99,SSW,203,1.6,4.9,75,0.00,,,0.00,WUHU216HW,2013-01-04 05:32:00,
2013-01-04 00:37:00,28.4,21.5,29.99,SW,225,5.4,6.3,75,0.00,,,0.00,WUHU216HW,2013-01-04 05:37:00,
2013-01-04 00:42:00,28.4,21.5,29.99,SW,225,3.4,8.7,75,0.00,,,0.00,WUHU216HW,2013-01-04 05:42:00,
2013-01-04 00:47:00,28.4,21.5,29.99,WSW,248,5.4,8.7,75,0.00,,,0.00,WUHU216HW,2013-01-04 05:47:00,
2013-01-04 00:52:00,28.4,21.5,29.99,West,270,2.0,6.9,75,0.00,,,0.00,WUHU216HW,2013-01-04 05:52:00,
2013-01-04 00:57:00,28.6,21.3,29.99,WSW,248,5.4,6.9,74,0.00,,,0.00,WUHU216HW,2013-01-04 05:57:00,
2013-01-04 01:02:00,28.4,21.3,29.99,WSW,248,2.7,5.4,74,0.00,,,0.00,WUHU216HW,2013-01-04 06:02:00,
2013-01-04 01:07:00,28.4,21.3,29.99,SW,225,3.4,5.4,74,0.00,,,0.00,WUHU216HW,2013-01-04 06:07:00,
2013-01-04 01:12:00,28.4,21.3,29.99,West,270,4.0,5.4,74,0.00,,,0.00,WUHU216HW,2013-01-04 06:12:00,
2013-01-04 01:17:00,28.4,21.3,29.99,West,270,2.2,7.6,74,0.00,,,0.00,WUHU216HW,2013-01-04 06:17:00,
2013-01-04 01:22:00,28.4,21.5,29.99,WSW,248,4.7,7.6,75,0.00,,,0.00,WUHU216HW,2013-01-04 06:22:00,
2013-01-04 01:27:00,28.4,21.5,29.98,West,270,5.8,6.5,75,0.00,,,0.00,WUHU216HW,2013-01-04 06:27:00,
2013-01-04 01:32:00,28.4,21.5,29.98,WSW,248,4.0,6.5,75,0.00,,,0.00,WUHU216HW,2013-01-04 06:32:00,
2013-01-04 01:37:00,28.4,21.5,29.98,WSW,248,3.4,6.9,75,0.00,,,0.00,WUHU216HW,2013-01-04 06:37:00,
2013-01-04 01:42:00,28.4,21.5,29.98,SSW,203,1.8,6.9,75,0.00,,,0.00,WUHU216HW,2013-01-04 06:42:00,
2013-01-04 01:47:00,28.4,21.5,29.98,SSE,158,2.2,6.3,75,0.00,,,0.00,WUHU216HW,2013-01-04 06:47:00,
2013-01-04 01:52:00,28.3,21.3,29.98,SW,225,6.9,6.9,75,0.00,,,0.00,WUHU216HW,2013-01-04 06:52:00,
2013-01-04 01:57:00,28.3,21.3,29.98,South,180,6.3,7.4,75,0.00,,,0.00,WUHU216HW,2013-01-04 06:57:00,
2013-01-04 02:02:00,28.4,21.8,29.98,SW,225,3.4,7.4,76,0.00,,,0.00,WUHU216HW,2013-01-04 07:02:00,
2013-01-04 02:07:00,28.3,21.6,29.98,SW,225,2.5,6.3,76,0.00,,,0.00,WUHU216HW,2013-01-04 07:07:00,
2013-01-04 02:12:00,28.3,21.6,29.98,SW,225,7.6,7.6,76,0.00,,,0.00,WUHU216HW,2013-01-04 07:12:00,
2013-01-04 02:17:00,28.3,21.3,29.98,WSW,248,3.4,7.6,75,0.00,,,0.00,WUHU216HW,2013-01-04 07:17:00,
2013-01-04 02:22:00,28.3,21.6,29.99,WSW,248,8.7,8.7,76,0.00,,,0.00,WUHU216HW,2013-01-04 07:22:00,
2013-01-04 02:27:00,28.4,21.8,29.99,WSW,248,6.0,8.7,76,0.00,,,0.00,WUHU216HW,2013-01-04 07:27:00,
2013-01-04 02:32:00,28.4,21.8,29.99,West,270,2.7,6.7,76,0.00,,,0.00,WUHU216HW,2013-01-04 07:32:00,
2013-01-04 02:37:00,28.3,21.6,29.99,SW,225,4.3,6.3,76,0.00,,,0.00,WUHU216HW,2013-01-04 07:37:00,
2013-01-04 02:42:00,28.3,21.3,29.99,WSW,248,7.4,10.5,75,0.00,,,0.00,WUHU216HW,2013-01-04 07:42:00,
2013-01-04 02:47:00,28.3,21.3,29.99,West,270,4.9,10.5,75,0.00,,,0.00,WUHU216HW,2013-01-04 07:47:00,
2013-01-04 02:52:00,28.3,21.3,29.99,WSW,248,2.5,11.4,75,0.00,,,0.00,WUHU216HW,2013-01-04 07:52:00,
2013-01-04 02:57:00,28.3,21.6,29.99,WSW,248,3.4,11.4,76,0.00,,,0.00,WUHU216HW,2013-01-04 07:57:00,
2013-01-04 03:02:00,28.3,21.3,29.99,West,270,3.6,8.1,75,0.00,,,0.00,WUHU216HW,2013-01-04 08:02:00,
2013-01-04 03:07:00,28.3,21.6,29.98,SW,225,4.7,8.1,76,0.00,,,0.00,WUHU216HW,2013-01-04 08:07:00,
2013-01-04 03:12:00,28.1,21.2,29.98,South,180,4.7,7.2,75,0.00,,,0.00,WUHU216HW,2013-01-04 08:12:00,
2013-01-04 03:17:00,28.1,21.2,29.98,WSW,248,3.1,7.4,75,0.00,,,0.00,WUHU216HW,2013-01-04 08:17:00,
2013-01-04 03:22:00,28.1,21.2,29.98,West,270,2.7,7.4,75,0.00,,,0.00,WUHU216HW,2013-01-04 08:22:00,
2013-01-04 03:27:00,28.1,21.2,29.98,WSW,248,3.4,6.0,75,0.00,,,0.00,WUHU216HW,2013-01-04 08:27:00,
2013-01-04 03:32:00,28.1,21.2,29.98,WSW,248,2.9,10.3,75,0.00,,,0.00,WUHU216HW,2013-01-04 08:32:00,
2013-01-04 03:37:00,28.1,21.2,29.98,SW,225,4.0,10.3,75,0.00,,,0.00,WUHU216HW,2013-01-04 08:37:00,
2013-01-04 03:42:00,28.1,21.2,29.97,WSW,248,3.8,8.7,75,0.00,,,0.00,WUHU216HW,2013-01-04 08:42:00,
2013-01-04 03:47:00,28.1,21.2,29.98,WSW,248,7.6,8.7,75,0.00,,,0.00,WUHU216HW,2013-01-04 08:47:00,
2013-01-04 03:52:00,27.9,21.0,29.98,SSW,203,4.0,7.6,75,0.00,,,0.00,WUHU216HW,2013-01-04 08:52:00,
2013-01-04 03:57:00,27.9,21.0,29.97,WSW,248,6.0,8.7,75,0.00,,,0.00,WUHU216HW,2013-01-04 08:57:00,
2013-01-04 04:02:00,27.9,21.0,29.97,SSE,158,6.7,8.7,75,0.00,,,0.00,WUHU216HW,2013-01-04 09:02:00,
2013-01-04 04:07:00,27.7,20.8,29.97,SW,225,8.9,8.9,75,0.00,,,0.00,WUHU216HW,2013-01-04 09:07:00,
2013-01-04 04:12:00,27.4,20.2,29.97,SSW,203,4.3,9.4,74,0.00,,,0.00,WUHU216HW,2013-01-04 09:12:00,
2013-01-04 04:17:00,27.2,20.3,29.97,West,270,4.0,10.5,75,0.00,,,0.00,WUHU216HW,2013-01-04 09:17:00,
2013-01-04 04:22:00,27.0,20.1,29.97,SW,225,2.5,10.5,75,0.00,,,0.00,WUHU216HW,2013-01-04 09:22:00,
2013-01-04 04:27:00,26.8,19.9,29.97,SSW,203,6.0,6.9,75,0.00,,,0.00,WUHU216HW,2013-01-04 09:27:00,
2013-01-04 04:32:00,26.8,19.9,29.97,WSW,248,8.1,8.1,75,0.00,,,0.00,WUHU216HW,2013-01-04 09:32:00,
2013-01-04 04:37:00,26.8,19.9,29.97,WSW,248,5.4,8.1,75,0.00,,,0.00,WUHU216HW,2013-01-04 09:37:00,
2013-01-04 04:42:00,26.6,19.7,29.96,WNW,293,4.5,6.7,75,0.00,,,0.00,WUHU216HW,2013-01-04 09:42:00,
2013-01-04 04:47:00,26.6,19.7,29.96,WSW,248,2.5,5.4,75,0.00,,,0.00,WUHU216HW,2013-01-04 09:47:00,
2013-01-04 04:52:00,26.3,19.7,29.96,SW,225,4.5,5.4,76,0.00,,,0.00,WUHU216HW,2013-01-04 09:52:00,
2013-01-04 04:57:00,26.1,19.5,29.96,SW,225,4.9,8.9,76,0.00,,,0.00,WUHU216HW,2013-01-04 09:57:00,
2013-01-04 05:02:00,25.9,19.6,29.96,WSW,248,5.4,9.6,77,0.00,,,0.00,WUHU216HW,2013-01-04 10:02:00,
2013-01-04 05:07:00,25.7,19.5,29.96,WNW,293,3.4,9.6,77,0.00,,,0.00,WUHU216HW,2013-01-04 10:07:00,
2013-01-04 05:12:00,25.6,19.4,29.96,WSW,248,5.4,6.3,77,0.00,,,0.00,WUHU216HW,2013-01-04 10:12:00,
2013-01-04 05:17:00,25.4,19.2,29.96,West,270,4.0,6.5,77,0.00,,,0.00,WUHU216HW,2013-01-04 10:17:00,
2013-01-04 05:22:00,25.2,19.3,29.96,WSW,248,3.4,9.6,78,0.00,,,0.00,WUHU216HW,2013-01-04 10:22:00,
2013-01-04 05:27:00,25.2,19.3,29.96,West,270,3.4,9.6,78,0.00,,,0.00,WUHU216HW,2013-01-04 10:27:00,
2013-01-04 05:32:00,24.8,19.0,29.97,SSW,203,10.3,10.3,78,0.00,,,0.00,WUHU216HW,2013-01-04 10:32:00,
2013-01-04 05:37:00,24.8,19.0,29.97,West,270,8.5,10.3,78,0.00,,,0.00,WUHU216HW,2013-01-04 10:37:00,
2013-01-04 05:42:00,24.8,19.0,29.97,SW,225,2.0,8.5,78,0.00,,,0.00,WUHU216HW,2013-01-04 10:42:00,
2013-01-04 05:47:00,24.8,19.0,29.97,SSW,203,2.0,8.5,78,0.00,,,0.00,WUHU216HW,2013-01-04 10:47:00,
2013-01-04 05:52:00,24.8,19.0,29.97,SW,225,6.7,10.1,78,0.00,,,0.00,WUHU216HW,2013-01-04 10:52:00,
2013-01-04 05:57:00,24.7,19.1,29.97,WNW,293,6.9,10.1,79,0.00,,,0.00,WUHU216HW,2013-01-04 10:57:00,
2013-01-04 06:02:00,24.5,18.9,29.97,SW,225,4.0,8.7,79,0.00,,,0.00,WUHU216HW,2013-01-04 11:02:00,
2013-01-04 06:07:00,24.5,18.9,29.97,SSW,203,4.7,12.1,79,0.00,,,0.00,WUHU216HW,2013-01-04 11:07:00,
2013-01-04 06:12:00,24.3,18.7,29.97,SSW,203,4.9,12.1,79,0.00,,,0.00,WUHU216HW,2013-01-04 11:12:00,
2013-01-04 06:17:00,24.1,18.5,29.97,West,270,6.3,8.1,79,0.00,,,0.00,WUHU216HW,2013-01-04 11:17:00,
2013-01-04 06:22:00,23.9,18.4,29.98,WSW,248,4.5,8.1,79,0.00,,,0.00,WUHU216HW,2013-01-04 11:22:00,
2013-01-04 06:27:00,23.6,17.7,29.98,SW,225,10.5,10.5,78,0.00,,,0.00,WUHU216HW,2013-01-04 11:27:00,
2013-01-04 06:32:00,23.4,17.6,29.98,SW,225,5.4,10.5,78,0.00,,,0.00,WUHU216HW,2013-01-04 11:32:00,
2013-01-04 06:37:00,23.2,17.7,29.97,NW,315,6.5,10.5,79,0.00,,,0.00,WUHU216HW,2013-01-04 11:37:00,
2013-01-04 06:42:00,22.9,17.4,29.97,South,180,8.5,8.5,79,0.00,,,0.00,WUHU216HW,2013-01-04 11:42:00,
2013-01-04 06:47:00,22.7,17.2,29.97,SW,225,8.5,8.5,79,0.00,,,0.00,WUHU216HW,2013-01-04 11:47:00,
2013-01-04 06:52:00,22.1,16.9,29.97,South,180,6.9,8.5,80,0.00,,,0.00,WUHU216HW,2013-01-04 11:52:00,
2013-01-04 06:57:00,22.0,16.7,29.98,West,270,9.2,9.2,80,0.00,,,0.00,WUHU216HW,2013-01-04 11:57:00,
2013-01-04 07:02:00,21.8,16.6,29.98,SW,225,7.4,9.8,80,0.00,,,0.00,WUHU216HW,2013-01-04 12:02:00,
2013-01-04 07:07:00,21.6,16.4,29.97,SW,225,3.4,9.8,80,0.00,,,0.00,WUHU216HW,2013-01-04 12:07:00,
2013-01-04 07:12:00,21.4,16.2,29.97,SW,225,5.6,11.0,80,0.00,,,0.00,WUHU216HW,2013-01-04 12:12:00,
2013-01-04 07:17:00,21.2,16.0,29.98,SSW,203,3.4,11.0,80,0.00,,,0.00,WUHU216HW,2013-01-04 12:17:00,
2013-01-04 07:22:00,21.2,16.0,29.97,WSW,248,5.4,10.7,80,0.00,,,0.00,WUHU216HW,2013-01-04 12:22:00,
2013-01-04 07:27:00,21.1,15.8,29.97,WSW,248,9.4,10.7,80,0.00,,,0.00,WUHU216HW,2013-01-04 12:27:00,
2013-01-04 07:32:00,21.1,15.8,29.97,West,270,5.4,9.4,80,0.00,,,0.00,WUHU216HW,2013-01-04 12:32:00,
2013-01-04 07:37:00,20.9,15.7,29.97,West,270,3.1,6.9,80,0.00,,,0.00,WUHU216HW,2013-01-04 12:37:00,
2013-01-04 07:42:00,20.9,15.7,29.98,WSW,248,5.8,6.9,80,0.00,,,0.00,WUHU216HW,2013-01-04 12:42:00,
2013-01-04 07:47:00,20.7,15.5,29.98,West,270,7.4,8.5,80,0.00,,,0.00,WUHU216HW,2013-01-04 12:47:00,
2013-01-04 07:52:00,20.5,15.3,29.97,West,270,6.3,9.2,80,0.00,,,0.00,WUHU216HW,2013-01-04 12:52:00,
2013-01-04 07:57:00,20.5,15.3,29.98,WSW,248,6.9,9.2,80,0.00,,,0.00,WUHU216HW,2013-01-04 12:57:00,
2013-01-04 08:02:00,20.5,15.3,29.98,SW,225,4.5,12.3,80,0.00,,,0.00,WUHU216HW,2013-01-04 13:02:00,
2013-01-04 08:07:00,20.5,15.3,29.98,WSW,248,9.4,12.3,80,0.00,,,0.00,WUHU216HW,2013-01-04 13:07:00,
2013-01-04 08:12:00,20.5,15.3,29.98,West,270,3.1,9.4,80,0.00,,,0.00,WUHU216HW,2013-01-04 13:12:00,
2013-01-04 08:17:00,20.7,15.5,29.98,SW,225,4.0,7.4,80,0.00,,,0.00,WUHU216HW,2013-01-04 13:17:00,
2013-01-04 08:22:00,20.7,15.2,29.98,SW,225,3.4,7.6,79,0.00,,,0.00,WUHU216HW,2013-01-04 13:22:00,
2013-01-04 08:27:00,20.9,15.4,29.98,West,270,11.4,11.4,79,0.00,,,0.00,WUHU216HW,2013-01-04 13:27:00,
2013-01-04 08:32:00,20.9,15.4,29.98,West,270,1.8,11.4,79,0.00,,,0.00,WUHU216HW,2013-01-04 13:32:00,
2013-01-04 08:37:00,21.1,15.6,29.98,SSW,203,6.5,7.6,79,0.00,,,0.00,WUHU216HW,2013-01-04 13:37:00,
2013-01-04 08:42:00,21.1,15.2,29.98,WNW,293,6.9,7.6,78,0.00,,,0.00,WUHU216HW,2013-01-04 13:42:00,
2013-01-04 08:47:00,21.2,15.4,29.98,SW,225,7.2,8.5,78,0.00,,,0.00,WUHU216HW,2013-01-04 13:47:00,
2013-01-04 08:52:00,21.4,15.6,29.98,SSW,203,4.0,8.5,78,0.00,,,0.00,WUHU216HW,2013-01-04 13:52:00,
2013-01-04 08:57:00,21.6,15.5,29.98,SW,225,5.8,9.6,77,0.00,,,0.00,WUHU216HW,2013-01-04 13:57:00,
2013-01-04 09:02:00,21.6,15.5,29.98,SSW,203,5.6,9.6,77,0.00,,,0.00,WUHU216HW,2013-01-04 14:02:00,
2013-01-04 09:07:00,21.8,15.7,29.98,WSW,248,7.2,11.9,77,0.00,,,0.00,WUHU216HW,2013-01-04 14:07:00,
2013-01-04 09:12:00,22.0,15.9,29.98,SW,225,10.7,11.9,77,0.00,,,0.00,WUHU216HW,2013-01-04 14:12:00,
2013-01-04 09:17:00,22.0,15.9,29.98,SW,225,7.2,10.7,77,0.00,,,0.00,WUHU216HW,2013-01-04 14:17:00,
2013-01-04 09:22:00,22.0,15.9,29.98,West,270,2.2,8.5,77,0.00,,,0.00,WUHU216HW,2013-01-04 14:22:00,
2013-01-04 09:27:00,22.0,15.5,29.98,WSW,248,8.5,15.9,76,0.00,,,0.00,WUHU216HW,2013-01-04 14:27:00,
2013-01-04 09:32:00,22.1,15.7,29.98,WSW,248,8.3,15.9,76,0.00,,,0.00,WUHU216HW,2013-01-04 14:32:00,
2013-01-04 09:37:00,22.1,15.7,29.98,SW,225,8.3,10.3,76,0.00,,,0.00,WUHU216HW,2013-01-04 14:37:00,
2013-01-04 09:42:00,22.1,15.7,29.98,South,180,5.1,9.4,76,0.00,,,0.00,WUHU216HW,2013-01-04 14:42:00,
2013-01-04 09:47:00,22.5,15.8,29.98,WSW,248,7.6,9.4,75,0.00,,,0.00,WUHU216HW,2013-01-04 14:47:00,
2013-01-04 09:52:00,22.5,16.0,29.98,SSW,203,10.5,10.5,76,0.00,,,0.00,WUHU216HW,2013-01-04 14:52:00,
2013-01-04 09:57:00,22.5,15.5,29.99,WSW,248,11.0,11.0,74,0.00,,,0.00,WUHU216HW,2013-01-04 14:57:00,
2013-01-04 10:02:00,22.5,15.5,29.99,WSW,248,10.1,11.0,74,0.00,,,0.00,WUHU216HW,2013-01-04 15:02:00,
2013-01-04 10:07:00,22.7,15.7,29.99,West,270,5.1,10.5,74,0.00,,,0.00,WUHU216HW,2013-01-04 15:07:00,
2013-01-04 10:12:00,22.7,15.0,30.00,West,270,11.6,11.6,72,0.00,,,0.00,WUHU216HW,2013-01-04 15:12:00,
2013-01-04 10:17:00,22.7,15.0,30.00,SW,225,9.2,11.6,72,0.00,,,0.00,WUHU216HW,2013-01-04 15:17:00,
2013-01-04 10:22:00,22.7,14.7,29.99,West,270,7.6,15.0,71,0.00,,,0.00,WUHU216HW,2013-01-04 15:22:00,
2013-01-04 10:27:00,22.7,15.0,29.99,West,270,4.0,15.0,72,0.00,,,0.00,WUHU216HW,2013-01-04 15:27:00,
2013-01-04 10:32:00,23.0,15.0,29.99,West,270,6.9,12.5,71,0.00,,,0.00,WUHU216HW,2013-01-04 15:32:00,
2013-01-04 10:37:00,23.2,15.6,29.99,SSW,203,9.2,9.8,72,0.00,,,0.00,WUHU216HW,2013-01-04 15:37:00,
2013-01-04 10:42:00,23.2,14.6,29.99,West,270,9.2,15.0,69,0.00,,,0.00,WUHU216HW,2013-01-04 15:42:00,
2013-01-04 10:47:00,23.2,15.0,29.99,WSW,248,5.1,15.0,70,0.00,,,0.00,WUHU216HW,2013-01-04 15:47:00,
2013-01-04 10:52:00,23.6,14.9,29.99,WSW,248,8.9,13.0,69,0.00,,,0.00,WUHU216HW,2013-01-04 15:52:00,
2013-01-04 10:57:00,23.6,14.6,29.98,WSW,248,10.5,13.0,68,0.00,,,0.00,WUHU216HW,2013-01-04 15:57:00,
2013-01-04 11:02:00,23.8,15.0,29.98,WSW,248,10.5,12.8,69,0.00,,,0.00,WUHU216HW,2013-01-04 16:02:00,
2013-01-04 11:07:00,23.9,15.2,29.98,WSW,248,6.7,12.8,69,0.00,,,0.00,WUHU216HW,2013-01-04 16:07:00,
2013-01-04 11:12:00,23.6,14.6,29.98,SSW,203,14.5,14.5,68,0.00,,,0.00,WUHU216HW,2013-01-04 16:12:00,
2013-01-04 11:17:00,23.8,14.7,29.98,SSW,203,4.9,14.5,68,0.00,,,0.00,WUHU216HW,2013-01-04 16:17:00,
2013-01-04 11:22:00,24.1,15.0,29.98,ESE,113,4.3,9.8,68,0.00,,,0.00,WUHU216HW,2013-01-04 16:22:00,
2013-01-04 11:27:00,24.1,15.4,29.97,WSW,248,4.3,9.8,69,0.00,,,0.00,WUHU216HW,2013-01-04 16:27:00,
2013-01-04 11:32:00,24.3,15.2,29.97,WSW,248,4.0,9.8,68,0.00,,,0.00,WUHU216HW,2013-01-04 16:32:00,
2013-01-04 11:37:00,24.3,14.9,29.97,West,270,9.8,9.8,67,0.00,,,0.00,WUHU216HW,2013-01-04 16:37:00,
2013-01-04 11:42:00,24.1,14.7,29.97,SSW,203,7.8,11.9,67,0.00,,,0.00,WUHU216HW,2013-01-04 16:42:00,
2013-01-04 11:47:00,24.1,15.0,29.97,WSW,248,5.8,11.9,68,0.00,,,0.00,WUHU216HW,2013-01-04 16:47:00,
2013-01-04 11:52:00,24.3,14.9,29.96,West,270,8.9,11.0,67,0.00,,,0.00,WUHU216HW,2013-01-04 16:52:00,
2013-01-04 11:57:00,24.1,15.0,29.96,SSW,203,9.2,9.8,68,0.00,,,0.00,WUHU216HW,2013-01-04 16:57:00,
2013-01-04 12:02:00,24.1,15.0,29.96,West,270,6.3,9.8,68,0.00,,,0.00,WUHU216HW,2013-01-04 17:02:00,
2013-01-04 12:07:00,24.1,14.7,29.96,SW,225,8.1,12.8,67,0.00,,,0.00,WUHU216HW,2013-01-04 17:07:00,
2013-01-04 12:11:00,24.5,15.0,29.96,SW,225,10.5,12.8,67,0.00,,,0.00,WUHU216HW,2013-01-04 17:11:00,
2013-01-04 12:16:00,24.7,15.2,29.96,WSW,248,6.3,10.5,67,0.00,,,0.00,WUHU216HW,2013-01-04 17:16:00,
2013-01-04 12:22:00,24.7,14.9,29.96,WSW,248,5.6,8.9,66,0.00,,,0.00,WUHU216HW,2013-01-04 17:22:00,
2013-01-04 12:26:00,24.5,14.7,29.96,WSW,248,9.8,14.1,66,0.00,,,0.00,WUHU216HW,2013-01-04 17:26:00,
2013-01-04 12:31:00,24.8,15.0,29.96,WSW,248,4.7,14.1,66,0.00,,,0.00,WUHU216HW,2013-01-04 17:31:00,
2013-01-04 12:36:00,25.0,15.2,29.97,SSW,203,4.3,12.1,66,0.00,,,0.00,WUHU216HW,2013-01-04 17:36:00,
2013-01-04 12:41:00,24.8,15.0,29.96,West,270,10.7,14.5,66,0.00,,,0.00,WUHU216HW,2013-01-04 17:41:00,
2013-01-04 12:46:00,25.0,15.2,29.95,WSW,248,13.4,14.5,66,0.00,,,0.00,WUHU216HW,2013-01-04 17:46:00,
2013-01-04 12:51:00,25.0,15.2,29.95,SW,225,11.0,13.4,66,0.00,,,0.00,WUHU216HW,2013-01-04 17:51:00,
2013-01-04 12:56:00,25.4,15.8,29.94,SSW,203,5.4,13.2,67,0.00,,,0.00,WUHU216HW,2013-01-04 17:56:00,
2013-01-04 13:01:00,25.6,15.7,29.95,SW,225,5.6,9.2,66,0.00,,,0.00,WUHU216HW,2013-01-04 18:01:00,
2013-01-04 13:06:00,25.6,15.7,29.94,SW,225,4.7,10.5,66,0.00,,,0.00,WUHU216HW,2013-01-04 18:06:00,
2013-01-04 13:11:00,25.4,15.6,29.94,South,180,9.2,11.0,66,0.00,,,0.00,WUHU216HW,2013-01-04 18:11:00,
2013-01-04 13:16:00,25.7,15.6,29.94,WSW,248,8.5,11.0,65,0.00,,,0.00,WUHU216HW,2013-01-04 18:16:00,
2013-01-04 13:21:00,25.6,15.7,29.94,SW,225,11.4,11.4,66,0.00,,,0.00,WUHU216HW,2013-01-04 18:21:00,
2013-01-04 13:26:00,25.2,15.4,29.95,WSW,248,8.7,11.6,66,0.00,,,0.00,WUHU216HW,2013-01-04 18:26:00,
2013-01-04 13:31:00,25.6,15.7,29.94,WSW,248,5.8,11.6,66,0.00,,,0.00,WUHU216HW,2013-01-04 18:31:00,
2013-01-04 13:36:00,25.9,16.0,29.94,SSW,203,3.8,11.4,66,0.00,,,0.00,WUHU216HW,2013-01-04 18:36:00,
2013-01-04 13:41:00,26.5,16.6,29.93,SSW,203,6.7,11.4,66,0.00,,,0.00,WUHU216HW,2013-01-04 18:41:00,
2013-01-04 13:46:00,26.6,16.7,29.93,WSW,248,4.7,13.4,66,0.00,,,0.00,WUHU216HW,2013-01-04 18:46:00,
2013-01-04 13:51:00,26.5,16.6,29.93,West,270,6.5,13.4,66,0.00,,,0.00,WUHU216HW,2013-01-04 18:51:00,
2013-01-04 13:56:00,26.5,16.2,29.92,SSW,203,6.3,10.3,65,0.00,,,0.00,WUHU216HW,2013-01-04 18:56:00,
2013-01-04 14:01:00,26.3,16.0,29.92,SSW,203,12.8,12.8,65,0.00,,,0.00,WUHU216HW,2013-01-04 19:01:00,
2013-01-04 14:06:00,26.3,16.4,29.92,SW,225,5.1,12.8,66,0.00,,,0.00,WUHU216HW,2013-01-04 19:06:00,
2013-01-04 14:11:00,26.5,16.6,29.92,WNW,293,6.9,11.9,66,0.00,,,0.00,WUHU216HW,2013-01-04 19:11:00,
2013-01-04 14:16:00,26.6,16.7,29.92,SW,225,1.8,11.6,66,0.00,,,0.00,WUHU216HW,2013-01-04 19:16:00,
2013-01-04 14:21:00,26.8,16.9,29.92,South,180,4.7,11.6,66,0.00,,,0.00,WUHU216HW,2013-01-04 19:21:00,
2013-01-04 14:26:00,26.6,16.7,29.92,SW,225,8.3,11.4,66,0.00,,,0.00,WUHU216HW,2013-01-04 19:26:00,
2013-01-04 14:31:00,26.6,16.7,29.92,SW,225,9.8,11.4,66,0.00,,,0.00,WUHU216HW,2013-01-04 19:31:00,
2013-01-04 14:36:00,26.6,16.7,29.92,WSW,248,9.6,10.7,66,0.00,,,0.00,WUHU216HW,2013-01-04 19:36:00,
2013-01-04 14:41:00,26.6,16.7,29.92,WSW,248,4.3,12.8,66,0.00,,,0.00,WUHU216HW,2013-01-04 19:41:00,
2013-01-04 14:46:00,26.6,16.7,29.92,SW,225,9.6,12.8,66,0.00,,,0.00,WUHU216HW,2013-01-04 19:46:00,
2013-01-04 14:51:00,26.8,17.3,29.92,SSW,203,9.8,12.1,67,0.00,,,0.00,WUHU216HW,2013-01-04 19:51:00,
2013-01-04 14:56:00,26.8,17.3,29.92,SW,225,9.6,15.0,67,0.00,,,0.00,WUHU216HW,2013-01-04 19:56:00,
2013-01-04 15:01:00,26.6,17.1,29.92,WSW,248,11.2,15.0,67,0.00,,,0.00,WUHU216HW,2013-01-04 20:01:00,
2013-01-04 15:06:00,26.8,17.3,29.92,WSW,248,3.6,13.6,67,0.00,,,0.00,WUHU216HW,2013-01-04 20:06:00,
2013-01-04 15:11:00,27.0,17.8,29.92,SW,225,8.3,13.6,68,0.00,,,0.00,WUHU216HW,2013-01-04 20:11:00,
2013-01-04 15:16:00,27.0,17.5,29.92,WSW,248,11.4,12.1,67,0.00,,,0.00,WUHU216HW,2013-01-04 20:16:00,
2013-01-04 15:21:00,27.2,18.0,29.92,SW,225,6.3,12.1,68,0.00,,,0.00,WUHU216HW,2013-01-04 20:21:00,
2013-01-04 15:26:00,27.4,18.2,29.92,SSW,203,4.0,12.1,68,0.00,,,0.00,WUHU216HW,2013-01-04 20:26:00,
2013-01-04 15:31:00,27.4,17.8,29.92,West,270,3.8,13.9,67,0.00,,,0.00,WUHU216HW,2013-01-04 20:31:00,
2013-01-04 15:36:00,27.5,18.4,29.92,SSE,158,10.7,13.9,68,0.00,,,0.00,WUHU216HW,2013-01-04 20:36:00,
2013-01-04 15:41:00,27.5,18.0,29.92,SSW,203,6.9,12.3,67,0.00,,,0.00,WUHU216HW,2013-01-04 20:41:00,
2013-01-04 15:46:00,27.5,18.0,29.92,SW,225,7.6,11.9,67,0.00,,,0.00,WUHU216HW,2013-01-04 20:46:00,
2013-01-04 15:51:00,27.4,17.8,29.92,South,180,10.7,12.5,67,0.00,,,0.00,WUHU216HW,2013-01-04 20:51:00,
2013-01-04 15:56:00,27.4,18.2,29.92,SW,225,8.7,12.5,68,0.00,,,0.00,WUHU216HW,2013-01-04 20:56:00,
2013-01-04 16:01:00,27.4,17.8,29.93,SSW,203,8.9,12.8,67,0.00,,,0.00,WUHU216HW,2013-01-04 21:01:00,
2013-01-04 16:06:00,27.4,18.2,29.93,WSW,248,10.5,12.8,68,0.00,,,0.00,WUHU216HW,2013-01-04 21:06:00,
2013-01-04 16:11:00,27.2,18.0,29.93,WNW,293,13.4,13.4,68,0.00,,,0.00,WUHU216HW,2013-01-04 21:11:00,
2013-01-04 16:16:00,27.2,18.0,29.93,West,270,9.4,13.4,68,0.00,,,0.00,WUHU216HW,2013-01-04 21:16:00,
2013-01-04 16:21:00,27.2,18.0,29.93,WSW,248,3.1,14.3,68,0.00,,,0.00,WUHU216HW,2013-01-04 21:21:00,
2013-01-04 16:26:00,27.2,18.0,29.93,West,270,7.4,14.3,68,0.00,,,0.00,WUHU216HW,2013-01-04 21:26:00,
2013-01-04 16:31:00,27.0,17.8,29.93,WSW,248,9.2,15.0,68,0.00,,,0.00,WUHU216HW,2013-01-04 21:31:00,
2013-01-04 16:36:00,27.0,18.2,29.94,SSW,203,5.6,15.0,69,0.00,,,0.00,WUHU216HW,2013-01-04 21:36:00,
2013-01-04 16:41:00,26.8,18.0,29.93,WSW,248,5.8,12.8,69,0.00,,,0.00,WUHU216HW,2013-01-04 21:41:00,
2013-01-04 16:46:00,26.6,18.2,29.94,SSW,203,9.4,12.3,70,0.00,,,0.00,WUHU216HW,2013-01-04 21:46:00,
2013-01-04 16:51:00,26.5,18.0,29.94,WSW,248,7.2,12.3,70,0.00,,,0.00,WUHU216HW,2013-01-04 21:51:00,
2013-01-04 16:56:00,26.3,17.8,29.94,WSW,248,3.1,10.1,70,0.00,,,0.00,WUHU216HW,2013-01-04 21:56:00,
2013-01-04 17:01:00,26.1,17.9,29.93,WSW,248,6.9,13.4,71,0.00,,,0.00,WUHU216HW,2013-01-04 22:01:00,
2013-01-04 17:06:00,25.9,17.7,29.94,WNW,293,13.9,13.9,71,0.00,,,0.00,WUHU216HW,2013-01-04 22:06:00,
2013-01-04 17:11:00,25.9,18.1,29.94,SW,225,7.4,13.9,72,0.00,,,0.00,WUHU216HW,2013-01-04 22:11:00,
2013-01-04 17:16:00,25.6,17.7,29.94,WNW,293,8.1,12.5,72,0.00,,,0.00,WUHU216HW,2013-01-04 22:16:00,
2013-01-04 17:21:00,25.4,17.6,29.94,WSW,248,8.9,10.1,72,0.00,,,0.00,WUHU216HW,2013-01-04 22:21:00,
2013-01-04 17:26:00,25.4,17.6,29.94,SSW,203,11.0,11.0,72,0.00,,,0.00,WUHU216HW,2013-01-04 22:26:00,
2013-01-04 17:31:00,25.2,17.4,29.94,SW,225,3.6,12.1,72,0.00,,,0.00,WUHU216HW,2013-01-04 22:31:00,
2013-01-04 17:36:00,25.2,17.4,29.95,WSW,248,8.1,12.1,72,0.00,,,0.00,WUHU216HW,2013-01-04 22:36:00,
2013-01-04 17:41:00,25.0,17.6,29.95,SW,225,6.3,9.8,73,0.00,,,0.00,WUHU216HW,2013-01-04 22:41:00,
2013-01-04 17:46:00,24.8,17.4,29.95,SW,225,5.1,9.8,73,0.00,,,0.00,WUHU216HW,2013-01-04 22:46:00,
2013-01-04 17:51:00,24.8,17.4,29.96,SSW,203,6.7,7.2,73,0.00,,,0.00,WUHU216HW,2013-01-04 22:51:00,
2013-01-04 17:56:00,24.8,17.4,29.95,SW,225,6.3,12.5,73,0.00,,,0.00,WUHU216HW,2013-01-04 22:56:00,
2013-01-04 18:01:00,24.8,17.6,29.95,West,270,4.0,12.5,74,0.00,,,0.00,WUHU216HW,2013-01-04 23:01:00,
2013-01-04 18:06:00,24.8,17.6,29.95,WSW,248,4.0,9.4,74,0.00,,,0.00,WUHU216HW,2013-01-04 23:06:00,
2013-01-04 18:11:00,24.7,17.6,29.95,WSW,248,8.5,9.4,74,0.00,,,0.00,WUHU216HW,2013-01-04 23:11:00,
2013-01-04 18:16:00,24.5,17.4,29.96,South,180,8.5,9.4,74,0.00,,,0.00,WUHU216HW,2013-01-04 23:16:00,
2013-01-04 18:21:00,24.5,17.6,29.96,SW,225,4.9,8.7,75,0.00,,,0.00,WUHU216HW,2013-01-04 23:21:00,
2013-01-04 18:26:00,24.5,17.6,29.97,WSW,248,2.9,8.7,75,0.00,,,0.00,WUHU216HW,2013-01-04 23:26:00,
2013-01-04 18:31:00,24.3,17.5,29.97,WSW,248,3.1,9.6,75,0.00,,,0.00,WUHU216HW,2013-01-04 23:31:00,
2013-01-04 18:36:00,24.3,17.5,29.97,SW,225,3.1,9.6,75,0.00,,,0.00,WUHU216HW,2013-01-04 23:36:00,
2013-01-04 18:41:00,24.1,17.3,29.97,SSW,203,5.8,8.9,75,0.00,,,0.00,WUHU216HW,2013-01-04 23:41:00,
2013-01-04 18:46:00,24.1,17.7,29.98,South,180,5.1,8.9,76,0.00,,,0.00,WUHU216HW,2013-01-04 23:46:00,
2013-01-04 18:51:00,24.1,17.7,29.98,West,270,7.4,8.5,76,0.00,,,0.00,WUHU216HW,2013-01-04 23:51:00,
2013-01-04 18:56:00,24.1,17.7,29.98,SW,225,7.4,8.5,76,0.00,,,0.00,WUHU216HW,2013-01-04 23:56:00,
2013-01-04 19:01:00,24.1,17.7,29.98,West,270,4.7,10.5,76,0.00,,,0.00,WUHU216HW,2013-01-05 00:01:00,
2013-01-04 19:06:00,24.1,17.7,29.98,WSW,248,3.4,10.5,76,0.00,,,0.00,WUHU216HW,2013-01-05 00:06:00,
2013-01-04 19:11:00,23.9,17.5,29.98,SSW,203,7.8,7.8,76,0.00,,,0.00,WUHU216HW,2013-01-05 00:11:00,
2013-01-04 19:16:00,23.9,17.8,29.98,WSW,248,6.9,7.8,77,0.00,,,0.00,WUHU216HW,2013-01-05 00:16:00,
2013-01-04 19:21:00,24.1,17.9,29.99,West,270,5.6,9.6,77,0.00,,,0.00,WUHU216HW,2013-01-05 00:21:00,
2013-01-04 19:26:00,24.1,17.9,29.99,West,270,5.8,9.6,77,0.00,,,0.00,WUHU216HW,2013-01-05 00:26:00,
2013-01-04 19:31:00,24.1,17.9,29.99,SSW,203,4.3,8.5,77,0.00,,,0.00,WUHU216HW,2013-01-05 00:31:00,
2013-01-04 19:36:00,24.1,17.9,29.99,SW,225,6.7,8.5,77,0.00,,,0.00,WUHU216HW,2013-01-05 00:36:00,
2013-01-04 19:41:00,24.1,17.9,30.00,SSW,203,7.6,8.5,77,0.00,,,0.00,WUHU216HW,2013-01-05 00:41:00,
2013-01-04 19:46:00,24.1,17.9,30.00,SSW,203,6.3,8.5,77,0.00,,,0.00,WUHU216HW,2013-01-05 00:46:00,
2013-01-04 19:51:00,24.1,17.9,30.00,SW,225,6.3,15.2,77,0.00,,,0.00,WUHU216HW,2013-01-05 00:51:00,
2013-01-04 19:56:00,24.3,18.1,30.00,SW,225,2.9,15.2,77,0.00,,,0.00,WUHU216HW,2013-01-05 00:56:00,
2013-01-04 20:01:00,24.3,18.1,30.00,WNW,293,3.1,9.8,77,0.00,,,0.00,WUHU216HW,2013-01-05 01:01:00,
2013-01-04 20:06:00,24.1,18.3,30.00,WNW,293,5.8,9.8,78,0.00,,,0.00,WUHU216HW,2013-01-05 01:06:00,
2013-01-04 20:11:00,24.1,18.3,30.00,WSW,248,6.7,7.6,78,0.00,,,0.00,WUHU216HW,2013-01-05 01:11:00,
2013-01-04 20:16:00,24.1,18.3,30.00,SSW,203,4.7,8.9,78,0.00,,,0.00,WUHU216HW,2013-01-05 01:16:00,
2013-01-04 20:21:00,24.1,18.3,30.00,West,270,3.1,8.9,78,0.00,,,0.00,WUHU216HW,2013-01-05 01:21:00,
2013-01-04 20:26:00,24.1,18.3,30.00,SW,225,2.9,9.4,78,0.00,,,0.00,WUHU216HW,2013-01-05 01:26:00,
2013-01-04 20:31:00,24.1,18.5,30.00,SSW,203,7.6,9.4,79,0.00,,,0.00,WUHU216HW,2013-01-05 01:31:00,
2013-01-04 20:36:00,24.1,18.5,30.00,West,270,9.2,9.2,79,0.00,,,0.00,WUHU216HW,2013-01-05 01:36:00,
2013-01-04 20:41:00,24.3,18.7,30.00,SW,225,4.7,9.2,79,0.00,,,0.00,WUHU216HW,2013-01-05 01:41:00,
2013-01-04 20:46:00,24.1,18.5,30.00,WSW,248,6.7,8.7,79,0.00,,,0.00,WUHU216HW,2013-01-05 01:46:00,
2013-01-04 20:51:00,24.3,18.7,30.00,WSW,248,9.4,9.4,79,0.00,,,0.00,WUHU216HW,2013-01-05 01:51:00,
2013-01-04 20:56:00,24.1,18.5,30.00,West,270,6.9,9.4,79,0.00,,,0.00,WUHU216HW,2013-01-05 01:56:00,
2013-01-04 21:01:00,24.1,18.9,30.00,SSW,203,5.6,6.9,80,0.00,,,0.00,WUHU216HW,2013-01-05 02:01:00,
2013-01-04 21:06:00,24.1,18.5,30.00,WSW,248,4.7,10.5,79,0.00,,,0.00,WUHU216HW,2013-01-05 02:06:00,
2013-01-04 21:11:00,24.1,18.9,30.00,WSW,248,9.6,10.5,80,0.00,,,0.00,WUHU216HW,2013-01-05 02:11:00,
2013-01-04 21:16:00,24.1,18.5,29.99,WSW,248,5.6,9.6,79,0.00,,,0.00,WUHU216HW,2013-01-05 02:16:00,
2013-01-04 21:21:00,23.9,19.0,29.99,WSW,248,9.6,9.6,81,0.00,,,0.00,WUHU216HW,2013-01-05 02:21:00,
2013-01-04 21:26:00,24.1,18.9,30.00,WSW,248,5.6,9.6,80,0.00,,,0.00,WUHU216HW,2013-01-05 02:26:00,
2013-01-04 21:31:00,24.3,19.1,30.00,SSW,203,4.0,9.2,80,0.00,,,0.00,WUHU216HW,2013-01-05 02:31:00,
2013-01-04 21:36:00,24.1,18.9,30.00,SSW,203,2.5,9.2,80,0.00,,,0.00,WUHU216HW,2013-01-05 02:36:00,
2013-01-04 21:41:00,24.3,19.1,30.00,WSW,248,6.3,10.1,80,0.00,,,0.00,WUHU216HW,2013-01-05 02:41:00,
2013-01-04 21:46:00,24.5,19.5,30.00,West,270,2.0,10.1,81,0.00,,,0.00,WUHU216HW,2013-01-05 02:46:00,
2013-01-04 21:51:00,24.1,18.9,30.00,WSW,248,7.2,8.1,80,0.00,,,0.00,WUHU216HW,2013-01-05 02:51:00,
2013-01-04 21:56:00,24.5,19.3,30.00,SW,225,8.5,11.2,80,0.00,,,0.00,WUHU216HW,2013-01-05 02:56:00,
2013-01-04 22:01:00,24.5,19.3,30.00,WSW,248,5.4,11.2,80,0.00,,,0.00,WUHU216HW,2013-01-05 03:01:00,
2013-01-04 22:05:00,24.5,19.3,30.00,WSW,248,9.8,9.8,80,0.00,,,0.00,WUHU216HW,2013-01-05 03:05:00,
2013-01-04 22:10:00,24.3,19.1,30.00,West,270,3.1,9.8,80,0.00,,,0.00,WUHU216HW,2013-01-05 03:10:00,
2013-01-04 22:15:00,24.3,19.1,30.01,WSW,248,4.3,7.8,80,0.00,,,0.00,WUHU216HW,2013-01-05 03:15:00,
2013-01-04 22:20:00,24.1,18.9,30.01,SSW,203,3.4,6.9,80,0.00,,,0.00,WUHU216HW,2013-01-05 03:20:00,
2013-01-04 22:25:00,24.5,19.5,30.01,WSW,248,8.1,9.2,81,0.00,,,0.00,WUHU216HW,2013-01-05 03:25:00,
2013-01-04 22:30:00,24.7,19.4,30.01,WSW,248,6.9,9.2,80,0.00,,,0.00,WUHU216HW,2013-01-05 03:30:00,
2013-01-04 22:35:00,24.5,19.5,30.01,WNW,293,4.7,8.9,81,0.00,,,0.00,WUHU216HW,2013-01-05 03:35:00,
2013-01-04 22:40:00,24.7,19.4,30.01,WSW,248,6.0,10.5,80,0.00,,,0.00,WUHU216HW,2013-01-05 03:40:00,
2013-01-04 22:45:00,24.7,19.4,30.01,WSW,248,10.3,10.5,80,0.00,,,0.00,WUHU216HW,2013-01-05 03:45:00,
2013-01-04 22:50:00,24.7,19.4,30.01,South,180,4.0,10.3,80,0.00,,,0.00,WUHU216HW,2013-01-05 03:50:00,
2013-01-04 22:55:00,24.7,19.4,30.01,WSW,248,3.4,8.3,80,0.00,,,0.00,WUHU216HW,2013-01-05 03:55:00,
2013-01-04 23:00:00,24.7,19.4,30.01,WSW,248,8.3,8.5,80,0.00,,,0.00,WUHU216HW,2013-01-05 04:00:00,
2013-01-04 23:05:00,24.7,19.4,30.02,SW,225,3.4,8.5,80,0.00,,,0.00,WUHU216HW,2013-01-05 04:05:00,
2013-01-04 23:10:00,24.7,19.7,30.02,SW,225,6.3,8.5,81,0.00,,,0.00,WUHU216HW,2013-01-05 04:10:00,
2013-01-04 23:15:00,24.7,19.4,30.02,WSW,248,7.2,9.4,80,0.00,,,0.00,WUHU216HW,2013-01-05 04:15:00,
2013-01-04 23:20:00,24.7,19.7,30.02,West,270,3.6,9.4,81,0.00,,,0.00,WUHU216HW,2013-01-05 04:20:00,
2013-01-04 23:25:00,24.7,19.7,30.02,SW,225,8.5,8.5,81,0.00,,,0.00,WUHU216HW,2013-01-05 04:25:00,
2013-01-04 23:30:00,24.7,19.7,30.02,West,270,9.6,9.6,81,0.00,,,0.00,WUHU216HW,2013-01-05 04:30:00,
2013-01-04 23:35:00,24.7,19.7,30.02,West,270,2.7,9.6,81,0.00,,,0.00,WUHU216HW,2013-01-05 04:35:00,
2013-01-04 23:40:00,24.7,19.7,30.02,WSW,248,2.7,7.6,81,0.00,,,0.00,WUHU216HW,2013-01-05 04:40:00,
2013-01-04 23:45:00,24.5,19.5,30.02,WSW,248,2.7,6.3,81,0.00,,,0.00,WUHU216HW,2013-01-05 04:45:00,
2013-01-04 23:50:00,24.7,19.7,30.02,WSW,248,7.6,8.5,81,0.00,,,0.00,WUHU216HW,2013-01-05 04:50:00,
2013-01-04 23:55:00,24.7,19.7,30.03,SSW,203,3.4,8.5,81,0.00,,,0.00,WUHU216HW,2013-01-05 04:55:00,